sensor_id;sensor_type;location;lat;lon;timestamp;pressure;altitude;pressure_sealevel;temperature;humidity
64844;BME280;51310;52.198;5.422;2023-02-22T00:01:30;101325.81;;;6.04;100.00
64844;BME280;51310;52.198;5.422;2023-02-22T00:04:02;101317.59;;;6.06;100.00
64844;BME280;51310;52.198;5.422;2023-02-22T00:06:28;101322.72;;;5.99;100.00
64844;BME280;51310;52.198;5.422;2023-02-22T00:08:56;101325.91;;;5.91;100.00
64844;BME280;51310;52.198;5.422;2023-02-22T00:11:23;101324.47;;;5.93;100.00
64844;BME280;51310;52.198;5.422;2023-02-22T00:13:48;101328.47;;;5.91;100.00
64844;BME280;51310;52.198;5.422;2023-02-22T00:16:20;101321.00;;;5.92;100.00
64844;BME280;51310;52.198;5.422;2023-02-22T00:18:47;101319.72;;;5.89;100.00
64844;BME280;51310;52.198;5.422;2023-02-22T00:21:15;101324.13;;;5.90;100.00
64844;BME280;51310;52.198;5.422;2023-02-22T00:23:44;101321.16;;;5.87;100.00
64844;BME280;51310;52.198;5.422;2023-02-22T00:26:16;101323.00;;;5.88;100.00
64844;BME280;51310;52.198;5.422;2023-02-22T00:28:48;101310.78;;;5.92;100.00
64844;BME280;51310;52.198;5.422;2023-02-22T00:31:15;101320.09;;;5.92;100.00
64844;BME280;51310;52.198;5.422;2023-02-22T00:33:40;101323.00;;;5.88;100.00
64844;BME280;51310;52.198;5.422;2023-02-22T00:36:08;101317.13;;;5.82;100.00
64844;BME280;51310;52.198;5.422;2023-02-22T00:38:34;101320.25;;;5.86;100.00
64844;BME280;51310;52.198;5.422;2023-02-22T00:40:59;101322.16;;;5.94;100.00
64844;BME280;51310;52.198;5.422;2023-02-22T00:43:25;101320.50;;;5.95;100.00
64844;BME280;51310;52.198;5.422;2023-02-22T00:45:51;101311.78;;;6.07;100.00
64844;BME280;51310;52.198;5.422;2023-02-22T00:48:19;101309.94;;;6.06;100.00
64844;BME280;51310;52.198;5.422;2023-02-22T00:50:45;101312.34;;;6.05;100.00
64844;BME280;51310;52.198;5.422;2023-02-22T00:53:14;101304.47;;;6.03;100.00
64844;BME280;51310;52.198;5.422;2023-02-22T00:55:39;101296.25;;;5.99;100.00
64844;BME280;51310;52.198;5.422;2023-02-22T00:58:07;101296.97;;;5.98;100.00
64844;BME280;51310;52.198;5.422;2023-02-22T01:00:36;101309.53;;;5.96;100.00
64844;BME280;51310;52.198;5.422;2023-02-22T01:03:05;101288.72;;;5.93;100.00
64844;BME280;51310;52.198;5.422;2023-02-22T01:05:31;101297.06;;;5.85;100.00
64844;BME280;51310;52.198;5.422;2023-02-22T01:07:59;101279.94;;;5.91;100.00
64844;BME280;51310;52.198;5.422;2023-02-22T01:10:29;101285.59;;;5.88;100.00
64844;BME280;51310;52.198;5.422;2023-02-22T01:12:56;101281.38;;;5.82;100.00
64844;BME280;51310;52.198;5.422;2023-02-22T01:15:26;101274.81;;;5.84;100.00
64844;BME280;51310;52.198;5.422;2023-02-22T01:17:53;101282.69;;;5.85;100.00
64844;BME280;51310;52.198;5.422;2023-02-22T01:20:21;101281.28;;;5.94;100.00
64844;BME280;51310;52.198;5.422;2023-02-22T01:22:50;101282.84;;;5.80;100.00
64844;BME280;51310;52.198;5.422;2023-02-22T01:25:24;101271.50;;;5.78;100.00
64844;BME280;51310;52.198;5.422;2023-02-22T01:27:51;101276.97;;;5.81;100.00
64844;BME280;51310;52.198;5.422;2023-02-22T01:30:26;101266.75;;;5.81;100.00
64844;BME280;51310;52.198;5.422;2023-02-22T01:32:52;101270.41;;;5.83;100.00
64844;BME280;51310;52.198;5.422;2023-02-22T01:35:29;101266.25;;;5.83;100.00
64844;BME280;51310;52.198;5.422;2023-02-22T01:37:56;101255.66;;;5.87;100.00
64844;BME280;51310;52.198;5.422;2023-02-22T01:40:29;101263.16;;;5.86;100.00
64844;BME280;51310;52.198;5.422;2023-02-22T01:42:59;101257.50;;;5.81;100.00
64844;BME280;51310;52.198;5.422;2023-02-22T01:48:08;101258.38;;;5.74;100.00
64844;BME280;51310;52.198;5.422;2023-02-22T01:50:46;101249.63;;;5.80;100.00
64844;BME280;51310;52.198;5.422;2023-02-22T01:53:17;101256.03;;;5.83;100.00
64844;BME280;51310;52.198;5.422;2023-02-22T01:55:44;101251.88;;;5.98;100.00
64844;BME280;51310;52.198;5.422;2023-02-22T01:58:13;101253.66;;;5.85;100.00
64844;BME280;51310;52.198;5.422;2023-02-22T02:00:41;101252.34;;;5.74;100.00
64844;BME280;51310;52.198;5.422;2023-02-22T02:03:18;101250.34;;;5.79;100.00
64844;BME280;51310;52.198;5.422;2023-02-22T02:05:48;101241.97;;;5.80;100.00
64844;BME280;51310;52.198;5.422;2023-02-22T02:08:32;101249.81;;;5.81;100.00
64844;BME280;51310;52.198;5.422;2023-02-22T02:11:04;101237.38;;;5.70;100.00
64844;BME280;51310;52.198;5.422;2023-02-22T02:13:30;101235.00;;;5.71;100.00
64844;BME280;51310;52.198;5.422;2023-02-22T02:15:56;101223.88;;;5.64;100.00
64844;BME280;51310;52.198;5.422;2023-02-22T02:18:23;101231.34;;;5.69;100.00
64844;BME280;51310;52.198;5.422;2023-02-22T02:24:25;101231.09;;;5.46;100.00
64844;BME280;51310;52.198;5.422;2023-02-22T02:27:15;101231.25;;;5.33;100.00
64844;BME280;51310;52.198;5.422;2023-02-22T02:35:48;101223.94;;;5.29;100.00
64844;BME280;51310;52.198;5.422;2023-02-22T02:38:41;101216.97;;;5.28;100.00
64844;BME280;51310;52.198;5.422;2023-02-22T02:43:52;101211.31;;;5.24;100.00
64844;BME280;51310;52.198;5.422;2023-02-22T02:46:35;101208.91;;;5.18;100.00
64844;BME280;51310;52.198;5.422;2023-02-22T02:49:10;101198.31;;;5.08;100.00
64844;BME280;51310;52.198;5.422;2023-02-22T02:51:47;101198.13;;;5.06;100.00
64844;BME280;51310;52.198;5.422;2023-02-22T02:54:15;101196.28;;;5.05;100.00
64844;BME280;51310;52.198;5.422;2023-02-22T02:56:42;101197.75;;;5.03;100.00
64844;BME280;51310;52.198;5.422;2023-02-22T02:59:35;101191.34;;;5.00;100.00
64844;BME280;51310;52.198;5.422;2023-02-22T03:02:47;101198.00;;;4.85;100.00
64844;BME280;51310;52.198;5.422;2023-02-22T03:05:53;101190.50;;;4.79;100.00
64844;BME280;51310;52.198;5.422;2023-02-22T03:08:40;101188.91;;;4.87;100.00
64844;BME280;51310;52.198;5.422;2023-02-22T03:11:17;101187.03;;;4.79;100.00
64844;BME280;51310;52.198;5.422;2023-02-22T03:14:15;101189.91;;;4.75;100.00
64844;BME280;51310;52.198;5.422;2023-02-22T03:19:35;101181.50;;;4.68;100.00
64844;BME280;51310;52.198;5.422;2023-02-22T03:22:15;101180.03;;;4.63;100.00
64844;BME280;51310;52.198;5.422;2023-02-22T03:25:04;101178.00;;;4.61;100.00
64844;BME280;51310;52.198;5.422;2023-02-22T03:27:47;101181.00;;;4.71;100.00
64844;BME280;51310;52.198;5.422;2023-02-22T03:30:36;101180.94;;;4.64;100.00
64844;BME280;51310;52.198;5.422;2023-02-22T03:33:13;101173.03;;;4.55;100.00
64844;BME280;51310;52.198;5.422;2023-02-22T03:35:55;101172.13;;;4.55;100.00
64844;BME280;51310;52.198;5.422;2023-02-22T03:38:25;101168.84;;;4.56;100.00
64844;BME280;51310;52.198;5.422;2023-02-22T03:40:57;101172.50;;;4.58;100.00
64844;BME280;51310;52.198;5.422;2023-02-22T03:43:35;101164.50;;;4.55;100.00
64844;BME280;51310;52.198;5.422;2023-02-22T03:46:05;101160.69;;;4.58;100.00
64844;BME280;51310;52.198;5.422;2023-02-22T03:49:13;101160.94;;;4.40;100.00
64844;BME280;51310;52.198;5.422;2023-02-22T03:51:42;101166.16;;;4.34;100.00
64844;BME280;51310;52.198;5.422;2023-02-22T03:54:10;101160.69;;;4.31;100.00
64844;BME280;51310;52.198;5.422;2023-02-22T03:56:52;101158.34;;;4.32;100.00
64844;BME280;51310;52.198;5.422;2023-02-22T03:59:20;101151.97;;;4.36;100.00
64844;BME280;51310;52.198;5.422;2023-02-22T04:01:53;101151.28;;;4.37;100.00
64844;BME280;51310;52.198;5.422;2023-02-22T04:04:20;101145.06;;;4.35;100.00
64844;BME280;51310;52.198;5.422;2023-02-22T04:06:46;101147.06;;;4.38;100.00
64844;BME280;51310;52.198;5.422;2023-02-22T04:09:13;101143.97;;;4.33;100.00
64844;BME280;51310;52.198;5.422;2023-02-22T04:11:39;101147.41;;;4.34;100.00
64844;BME280;51310;52.198;5.422;2023-02-22T04:14:05;101145.06;;;4.35;100.00
64844;BME280;51310;52.198;5.422;2023-02-22T04:16:31;101138.66;;;4.31;100.00
64844;BME280;51310;52.198;5.422;2023-02-22T04:18:56;101142.16;;;4.32;100.00
64844;BME280;51310;52.198;5.422;2023-02-22T04:21:22;101139.94;;;4.28;100.00
64844;BME280;51310;52.198;5.422;2023-02-22T04:23:48;101134.06;;;4.22;100.00
64844;BME280;51310;52.198;5.422;2023-02-22T04:26:14;101126.09;;;4.26;100.00
64844;BME280;51310;52.198;5.422;2023-02-22T04:28:39;101129.00;;;4.29;100.00
64844;BME280;51310;52.198;5.422;2023-02-22T04:31:05;101134.44;;;4.25;100.00
64844;BME280;51310;52.198;5.422;2023-02-22T04:33:31;101128.06;;;4.21;100.00
64844;BME280;51310;52.198;5.422;2023-02-22T04:35:57;101125.84;;;4.17;100.00
64844;BME280;51310;52.198;5.422;2023-02-22T04:38:25;101118.38;;;4.19;100.00
64844;BME280;51310;52.198;5.422;2023-02-22T04:40:52;101121.13;;;4.20;100.00
64844;BME280;51310;52.198;5.422;2023-02-22T04:43:18;101114.25;;;4.26;100.00
64844;BME280;51310;52.198;5.422;2023-02-22T04:45:44;101114.63;;;4.29;100.00
64844;BME280;51310;52.198;5.422;2023-02-22T04:48:10;101107.03;;;4.37;100.00
64844;BME280;51310;52.198;5.422;2023-02-22T04:50:36;101111.75;;;4.34;100.00
64844;BME280;51310;52.198;5.422;2023-02-22T04:53:02;101097.84;;;4.24;100.00
64844;BME280;51310;52.198;5.422;2023-02-22T04:55:28;101099.28;;;4.22;100.00
64844;BME280;51310;52.198;5.422;2023-02-22T04:57:55;101091.66;;;4.22;100.00
64844;BME280;51310;52.198;5.422;2023-02-22T05:00:22;101093.44;;;4.16;100.00
64844;BME280;51310;52.198;5.422;2023-02-22T05:02:49;101091.28;;;4.19;100.00
64844;BME280;51310;52.198;5.422;2023-02-22T05:05:18;101084.34;;;4.18;100.00
64844;BME280;51310;52.198;5.422;2023-02-22T05:07:46;101076.56;;;4.24;100.00
64844;BME280;51310;52.198;5.422;2023-02-22T05:10:13;101081.25;;;4.21;100.00
64844;BME280;51310;52.198;5.422;2023-02-22T05:12:38;101080.50;;;4.15;100.00
64844;BME280;51310;52.198;5.422;2023-02-22T05:15:06;101083.53;;;4.05;100.00
64844;BME280;51310;52.198;5.422;2023-02-22T05:17:32;101079.22;;;4.11;100.00
64844;BME280;51310;52.198;5.422;2023-02-22T05:19:58;101079.69;;;4.01;100.00
64844;BME280;51310;52.198;5.422;2023-02-22T05:22:24;101075.91;;;4.05;100.00
64844;BME280;51310;52.198;5.422;2023-02-22T05:24:50;101076.66;;;4.11;100.00
64844;BME280;51310;52.198;5.422;2023-02-22T05:27:19;101069.72;;;4.10;100.00
64844;BME280;51310;52.198;5.422;2023-02-22T05:29:44;101069.69;;;4.03;100.00
64844;BME280;51310;52.198;5.422;2023-02-22T05:32:10;101063.16;;;4.05;100.00
64844;BME280;51310;52.198;5.422;2023-02-22T05:34:39;101060.03;;;4.00;100.00
64844;BME280;51310;52.198;5.422;2023-02-22T05:37:04;101056.59;;;4.00;100.00
64844;BME280;51310;52.198;5.422;2023-02-22T05:39:30;101055.16;;;4.02;100.00
64844;BME280;51310;52.198;5.422;2023-02-22T05:41:57;101057.19;;;4.11;100.00
64844;BME280;51310;52.198;5.422;2023-02-22T05:44:23;101053.53;;;4.09;100.00
64844;BME280;51310;52.198;5.422;2023-02-22T05:46:48;101060.84;;;4.14;100.00
64844;BME280;51310;52.198;5.422;2023-02-22T05:49:14;101051.13;;;4.04;100.00
64844;BME280;51310;52.198;5.422;2023-02-22T05:51:40;101061.84;;;4.01;100.00
64844;BME280;51310;52.198;5.422;2023-02-22T05:54:06;101049.44;;;3.97;100.00
64844;BME280;51310;52.198;5.422;2023-02-22T05:56:32;101050.22;;;4.03;100.00
64844;BME280;51310;52.198;5.422;2023-02-22T05:58:58;101044.97;;;4.02;100.00
64844;BME280;51310;52.198;5.422;2023-02-22T06:01:25;101045.53;;;4.06;100.00
64844;BME280;51310;52.198;5.422;2023-02-22T06:03:51;101047.34;;;4.07;100.00
64844;BME280;51310;52.198;5.422;2023-02-22T06:06:18;101041.56;;;4.16;100.00
64844;BME280;51310;52.198;5.422;2023-02-22T06:08:45;101038.50;;;4.18;100.00
64844;BME280;51310;52.198;5.422;2023-02-22T06:11:11;101037.09;;;4.27;100.00
64844;BME280;51310;52.198;5.422;2023-02-22T06:13:38;101028.75;;;4.36;100.00
64844;BME280;51310;52.198;5.422;2023-02-22T06:16:05;101025.69;;;4.38;100.00
64844;BME280;51310;52.198;5.422;2023-02-22T06:18:31;101033.44;;;4.25;100.00
64844;BME280;51310;52.198;5.422;2023-02-22T06:20:57;101024.72;;;4.23;100.00
64844;BME280;51310;52.198;5.422;2023-02-22T06:23:25;101016.19;;;4.30;100.00
64844;BME280;51310;52.198;5.422;2023-02-22T06:25:51;101017.41;;;4.19;100.00
64844;BME280;51310;52.198;5.422;2023-02-22T06:28:16;101020.63;;;4.11;100.00
64844;BME280;51310;52.198;5.422;2023-02-22T06:30:42;101027.38;;;4.10;100.00
64844;BME280;51310;52.198;5.422;2023-02-22T06:33:09;101035.47;;;4.01;100.00
64844;BME280;51310;52.198;5.422;2023-02-22T06:35:35;101034.03;;;4.03;100.00
64844;BME280;51310;52.198;5.422;2023-02-22T06:38:01;101034.91;;;3.96;100.00
64844;BME280;51310;52.198;5.422;2023-02-22T06:40:27;101041.81;;;3.97;100.00
64844;BME280;51310;52.198;5.422;2023-02-22T06:42:57;101029.81;;;3.96;100.00
64844;BME280;51310;52.198;5.422;2023-02-22T06:45:24;101042.19;;;3.93;100.00
64844;BME280;51310;52.198;5.422;2023-02-22T06:47:50;101034.00;;;3.96;100.00
64844;BME280;51310;52.198;5.422;2023-02-22T06:50:24;101033.47;;;3.98;100.00
64844;BME280;51310;52.198;5.422;2023-02-22T06:52:51;101030.75;;;4.04;100.00
64844;BME280;51310;52.198;5.422;2023-02-22T06:55:24;101020.19;;;4.01;100.00
64844;BME280;51310;52.198;5.422;2023-02-22T06:57:51;101020.53;;;3.97;100.00
64844;BME280;51310;52.198;5.422;2023-02-22T07:00:19;101018.00;;;3.97;100.00
64844;BME280;51310;52.198;5.422;2023-02-22T07:02:47;101013.34;;;4.07;100.00
64844;BME280;51310;52.198;5.422;2023-02-22T07:05:16;101012.44;;;4.06;100.00
64844;BME280;51310;52.198;5.422;2023-02-22T07:07:42;101013.75;;;4.17;100.00
64844;BME280;51310;52.198;5.422;2023-02-22T07:10:27;101018.63;;;4.08;100.00
64844;BME280;51310;52.198;5.422;2023-02-22T07:12:53;101023.38;;;4.13;100.00
64844;BME280;51310;52.198;5.422;2023-02-22T07:15:23;101020.63;;;4.11;100.00
64844;BME280;51310;52.198;5.422;2023-02-22T07:17:50;101021.84;;;4.00;100.00
64844;BME280;51310;52.198;5.422;2023-02-22T07:20:17;101011.34;;;4.11;100.00
64844;BME280;51310;52.198;5.422;2023-02-22T07:22:45;101017.31;;;4.05;100.00
64844;BME280;51310;52.198;5.422;2023-02-22T07:25:11;101017.13;;;4.03;100.00
64844;BME280;51310;52.198;5.422;2023-02-22T07:27:41;101026.75;;;4.06;100.00
64844;BME280;51310;52.198;5.422;2023-02-22T07:30:26;101020.63;;;4.11;100.00
64844;BME280;51310;52.198;5.422;2023-02-22T07:32:57;101026.44;;;4.10;100.00
64844;BME280;51310;52.198;5.422;2023-02-22T07:35:36;101028.97;;;4.10;100.00
64844;BME280;51310;52.198;5.422;2023-02-22T07:38:04;101023.88;;;4.10;100.00
64844;BME280;51310;52.198;5.422;2023-02-22T07:40:33;101028.72;;;4.21;100.00
64844;BME280;51310;52.198;5.422;2023-02-22T07:45:40;101022.34;;;4.25;100.00
64844;BME280;51310;52.198;5.422;2023-02-22T07:48:06;101023.31;;;4.32;100.00
64844;BME280;51310;52.198;5.422;2023-02-22T07:50:34;101025.50;;;4.37;100.00
64844;BME280;51310;52.198;5.422;2023-02-22T07:53:03;101028.00;;;4.29;100.00
64844;BME280;51310;52.198;5.422;2023-02-22T07:55:31;101030.78;;;4.38;100.00
64844;BME280;51310;52.198;5.422;2023-02-22T07:58:05;101029.19;;;4.46;100.00
64844;BME280;51310;52.198;5.422;2023-02-22T08:00:37;101023.53;;;4.48;100.00
64844;BME280;51310;52.198;5.422;2023-02-22T08:03:10;101019.06;;;4.60;100.00
64844;BME280;51310;52.198;5.422;2023-02-22T08:05:40;101026.88;;;4.62;100.00
64844;BME280;51310;52.198;5.422;2023-02-22T08:08:06;101038.28;;;4.51;100.00
64844;BME280;51310;52.198;5.422;2023-02-22T08:10:33;101028.50;;;4.61;100.00
64844;BME280;51310;52.198;5.422;2023-02-22T08:13:00;101038.00;;;4.62;100.00
64844;BME280;51310;52.198;5.422;2023-02-22T08:15:30;101036.53;;;4.64;100.00
64844;BME280;51310;52.198;5.422;2023-02-22T08:17:58;101032.91;;;4.62;100.00
64844;BME280;51310;52.198;5.422;2023-02-22T08:20:24;101029.53;;;4.49;100.00
64844;BME280;51310;52.198;5.422;2023-02-22T08:22:51;101028.06;;;4.44;100.00
64844;BME280;51310;52.198;5.422;2023-02-22T08:25:19;101026.84;;;4.47;100.00
64844;BME280;51310;52.198;5.422;2023-02-22T08:27:46;101026.50;;;4.59;100.00
64844;BME280;51310;52.198;5.422;2023-02-22T08:30:22;101025.78;;;4.60;100.00
64844;BME280;51310;52.198;5.422;2023-02-22T08:32:49;101031.44;;;4.64;100.00
64844;BME280;51310;52.198;5.422;2023-02-22T08:35:18;101025.97;;;4.68;100.00
64844;BME280;51310;52.198;5.422;2023-02-22T08:37:50;101029.28;;;4.67;100.00
64844;BME280;51310;52.198;5.422;2023-02-22T08:40:20;101029.28;;;4.67;100.00
64844;BME280;51310;52.198;5.422;2023-02-22T08:42:47;101028.59;;;4.76;100.00
64844;BME280;51310;52.198;5.422;2023-02-22T08:45:14;101020.38;;;4.78;100.00
64844;BME280;51310;52.198;5.422;2023-02-22T08:47:40;101014.94;;;4.82;100.00
64844;BME280;51310;52.198;5.422;2023-02-22T08:50:08;101026.59;;;4.80;100.00
64844;BME280;51310;52.198;5.422;2023-02-22T08:52:34;101027.47;;;4.73;100.00
64844;BME280;51310;52.198;5.422;2023-02-22T08:55:00;101026.25;;;4.84;100.00
64844;BME280;51310;52.198;5.422;2023-02-22T08:57:26;101034.81;;;4.92;100.00
64844;BME280;51310;52.198;5.422;2023-02-22T08:59:52;101026.25;;;4.99;100.00
64844;BME280;51310;52.198;5.422;2023-02-22T09:02:20;101022.25;;;4.93;100.00
64844;BME280;51310;52.198;5.422;2023-02-22T09:04:47;101015.69;;;4.96;100.00
64844;BME280;51310;52.198;5.422;2023-02-22T09:07:15;101016.63;;;5.03;100.00
64844;BME280;51310;52.198;5.422;2023-02-22T09:09:44;101006.78;;;5.06;100.00
64844;BME280;51310;52.198;5.422;2023-02-22T09:12:11;101004.03;;;5.05;100.00
64844;BME280;51310;52.198;5.422;2023-02-22T09:14:37;100995.50;;;5.11;100.00
64844;BME280;51310;52.198;5.422;2023-02-22T09:17:04;100994.25;;;5.29;100.00
64844;BME280;51310;52.198;5.422;2023-02-22T09:19:29;101005.72;;;5.33;100.00
64844;BME280;51310;52.198;5.422;2023-02-22T09:21:57;100992.97;;;5.33;100.00
64844;BME280;51310;52.198;5.422;2023-02-22T09:24:24;101001.72;;;5.28;100.00
64844;BME280;51310;52.198;5.422;2023-02-22T09:26:50;100991.69;;;5.37;100.00
64844;BME280;51310;52.198;5.422;2023-02-22T09:29:24;100999.00;;;5.41;100.00
64844;BME280;51310;52.198;5.422;2023-02-22T09:31:53;100997.72;;;5.51;100.00
64844;BME280;51310;52.198;5.422;2023-02-22T09:34:21;100999.69;;;5.61;100.00
64844;BME280;51310;52.198;5.422;2023-02-22T09:36:52;101001.91;;;5.58;100.00
64844;BME280;51310;52.198;5.422;2023-02-22T09:39:18;101004.09;;;5.62;100.00
64844;BME280;51310;52.198;5.422;2023-02-22T09:44:51;100988.19;;;5.72;100.00
64844;BME280;51310;52.198;5.422;2023-02-22T09:47:36;100986.22;;;5.69;100.00
64844;BME280;51310;52.198;5.422;2023-02-22T09:50:10;100975.44;;;5.79;100.00
64844;BME280;51310;52.198;5.422;2023-02-22T09:53:04;100982.72;;;5.76;100.00
64844;BME280;51310;52.198;5.422;2023-02-22T09:55:44;100974.53;;;5.86;100.00
64844;BME280;51310;52.198;5.422;2023-02-22T09:58:30;100955.19;;;5.88;100.00
64844;BME280;51310;52.198;5.422;2023-02-22T10:04:21;100952.38;;;6.22;100.00
64844;BME280;51310;52.198;5.422;2023-02-22T10:09:56;100942.50;;;6.25;100.00
64844;BME280;51310;52.198;5.422;2023-02-22T10:27:45;100940.16;;;6.50;100.00
64844;BME280;51310;52.198;5.422;2023-02-22T10:30:30;100939.78;;;6.54;100.00
64844;BME280;51310;52.198;5.422;2023-02-22T10:33:16;100933.25;;;6.79;100.00
64844;BME280;51310;52.198;5.422;2023-02-22T10:35:45;100932.81;;;6.90;100.00
64844;BME280;51310;52.198;5.422;2023-02-22T10:38:25;100938.22;;;7.01;100.00
64844;BME280;51310;52.198;5.422;2023-02-22T10:43:39;100936.34;;;7.30;100.00
64844;BME280;51310;52.198;5.422;2023-02-22T10:46:09;100928.63;;;7.37;100.00
64844;BME280;51310;52.198;5.422;2023-02-22T10:48:39;100932.25;;;7.39;100.00
64844;BME280;51310;52.198;5.422;2023-02-22T10:51:09;100935.66;;;7.47;100.00
64844;BME280;51310;52.198;5.422;2023-02-22T10:53:36;100928.81;;;7.54;100.00
64844;BME280;51310;52.198;5.422;2023-02-22T10:56:24;100927.84;;;7.61;100.00
64844;BME280;51310;52.198;5.422;2023-02-22T10:58:58;100935.22;;;7.74;100.00
64844;BME280;51310;52.198;5.422;2023-02-22T11:01:35;100931.00;;;7.90;100.00
64844;BME280;51310;52.198;5.422;2023-02-22T11:04:15;100933.66;;;7.83;100.00
64844;BME280;51310;52.198;5.422;2023-02-22T11:06:46;100929.69;;;7.78;100.00
64844;BME280;51310;52.198;5.422;2023-02-22T11:09:17;100931.81;;;7.66;100.00
64844;BME280;51310;52.198;5.422;2023-02-22T11:11:46;100925.06;;;7.67;100.00
64844;BME280;51310;52.198;5.422;2023-02-22T11:14:26;100915.25;;;7.55;100.00
64844;BME280;51310;52.198;5.422;2023-02-22T11:16:54;100915.03;;;7.61;100.00
64844;BME280;51310;52.198;5.422;2023-02-22T11:19:26;100915.34;;;7.64;100.00
64844;BME280;51310;52.198;5.422;2023-02-22T11:21:58;100911.56;;;7.76;100.00
64844;BME280;51310;52.198;5.422;2023-02-22T11:24:26;100908.19;;;7.85;100.00
64844;BME280;51310;52.198;5.422;2023-02-22T11:27:00;100902.00;;;7.83;100.00
64844;BME280;51310;52.198;5.422;2023-02-22T11:29:30;100910.41;;;7.81;100.00
64844;BME280;51310;52.198;5.422;2023-02-22T11:32:18;100913.22;;;7.92;100.00
64844;BME280;51310;52.198;5.422;2023-02-22T11:34:48;100905.03;;;7.87;100.00
64844;BME280;51310;52.198;5.422;2023-02-22T11:39:48;100909.34;;;7.95;100.00
64844;BME280;51310;52.198;5.422;2023-02-22T11:42:27;100910.00;;;8.17;100.00
64844;BME280;51310;52.198;5.422;2023-02-22T11:45:20;100917.75;;;8.42;100.00
64844;BME280;51310;52.198;5.422;2023-02-22T11:47:59;100915.84;;;8.48;100.00
64844;BME280;51310;52.198;5.422;2023-02-22T11:59:33;100891.75;;;8.55;100.00
64844;BME280;51310;52.198;5.422;2023-02-22T12:05:40;100889.06;;;8.53;100.00
64844;BME280;51310;52.198;5.422;2023-02-22T12:08:51;100882.19;;;8.45;100.00
64844;BME280;51310;52.198;5.422;2023-02-22T12:11:45;100887.22;;;8.36;100.00
64844;BME280;51310;52.198;5.422;2023-02-22T12:19:46;100878.63;;;8.52;100.00
64844;BME280;51310;52.198;5.422;2023-02-22T12:22:30;100874.28;;;8.59;100.00
64844;BME280;51310;52.198;5.422;2023-02-22T12:25:26;100875.94;;;8.59;100.00
64844;BME280;51310;52.198;5.422;2023-02-22T12:28:27;100877.50;;;8.66;100.00
64844;BME280;51310;52.198;5.422;2023-02-22T12:31:12;100870.78;;;8.75;100.00
64844;BME280;51310;52.198;5.422;2023-02-22T12:36:44;100870.34;;;9.12;100.00
64844;BME280;51310;52.198;5.422;2023-02-22T12:41:55;100866.56;;;9.17;100.00
64844;BME280;51310;52.198;5.422;2023-02-22T12:44:45;100861.91;;;9.22;100.00
64844;BME280;51310;52.198;5.422;2023-02-22T12:47:20;100863.31;;;9.36;100.00
64844;BME280;51310;52.198;5.422;2023-02-22T12:50:20;100855.94;;;9.56;100.00
64844;BME280;51310;52.198;5.422;2023-02-22T12:53:11;100860.16;;;9.38;100.00
64844;BME280;51310;52.198;5.422;2023-02-22T12:55:56;100858.47;;;9.30;100.00
64844;BME280;51310;52.198;5.422;2023-02-22T12:58:32;100850.06;;;9.49;100.00
64844;BME280;51310;52.198;5.422;2023-02-22T13:01:16;100856.13;;;9.67;100.00
64844;BME280;51310;52.198;5.422;2023-02-22T13:03:45;100860.22;;;9.64;100.00
64844;BME280;51310;52.198;5.422;2023-02-22T13:19:02;100852.31;;;9.54;100.00
64844;BME280;51310;52.198;5.422;2023-02-22T13:27:52;100848.69;;;9.61;100.00
64844;BME280;51310;52.198;5.422;2023-02-22T13:30:35;100852.03;;;9.51;100.00
64844;BME280;51310;52.198;5.422;2023-02-22T13:39:06;100844.13;;;9.41;100.00
64844;BME280;51310;52.198;5.422;2023-02-22T13:42:01;100844.13;;;9.32;100.00
64844;BME280;51310;52.198;5.422;2023-02-22T13:48:12;100849.09;;;9.39;100.00
64844;BME280;51310;52.198;5.422;2023-02-22T13:54:08;100847.75;;;9.34;100.00
64844;BME280;51310;52.198;5.422;2023-02-22T13:56:44;100837.13;;;9.14;100.00
64844;BME280;51310;52.198;5.422;2023-02-22T13:59:35;100834.72;;;9.24;100.00
64844;BME280;51310;52.198;5.422;2023-02-22T14:02:04;100832.34;;;9.34;100.00
64844;BME280;51310;52.198;5.422;2023-02-22T14:04:35;100835.81;;;9.35;100.00
64844;BME280;51310;52.198;5.422;2023-02-22T14:09:53;100843.19;;;9.23;100.00
64844;BME280;51310;52.198;5.422;2023-02-22T14:18:02;100850.91;;;9.32;100.00
64844;BME280;51310;52.198;5.422;2023-02-22T14:20:36;100854.81;;;9.28;100.00
64844;BME280;51310;52.198;5.422;2023-02-22T14:23:46;100855.25;;;9.24;100.00
64844;BME280;51310;52.198;5.422;2023-02-22T14:26:36;100859.31;;;9.13;100.00
64844;BME280;51310;52.198;5.422;2023-02-22T14:29:16;100852.81;;;9.08;100.00
64844;BME280;51310;52.198;5.422;2023-02-22T14:37:20;100855.06;;;9.05;100.00
64844;BME280;51310;52.198;5.422;2023-02-22T14:39:59;100860.81;;;9.11;100.00
64844;BME280;51310;52.198;5.422;2023-02-22T14:42:42;100863.88;;;9.16;100.00
64844;BME280;51310;52.198;5.422;2023-02-22T14:45:32;100867.38;;;9.25;100.00
64844;BME280;51310;52.198;5.422;2023-02-22T14:51:24;100858.91;;;9.35;100.00
64844;BME280;51310;52.198;5.422;2023-02-22T14:59:26;100859.81;;;9.27;100.00
64844;BME280;51310;52.198;5.422;2023-02-22T15:02:25;100857.41;;;9.28;100.00
64844;BME280;51310;52.198;5.422;2023-02-22T15:04:54;100863.13;;;9.26;100.00
64844;BME280;51310;52.198;5.422;2023-02-22T15:07:30;100857.06;;;9.16;100.00
64844;BME280;51310;52.198;5.422;2023-02-22T15:10:45;100859.50;;;9.23;100.00
64844;BME280;51310;52.198;5.422;2023-02-22T15:13:25;100856.16;;;9.16;100.00
64844;BME280;51310;52.198;5.422;2023-02-22T15:16:04;100853.69;;;9.09;100.00
64844;BME280;51310;52.198;5.422;2023-02-22T15:18:43;100858.50;;;8.97;100.00
64844;BME280;51310;52.198;5.422;2023-02-22T15:21:23;100868.34;;;9.01;100.00
64844;BME280;51310;52.198;5.422;2023-02-22T15:23:59;100859.72;;;9.09;100.00
64844;BME280;51310;52.198;5.422;2023-02-22T15:26:33;100855.78;;;9.04;100.00